createdAt,value
2023-03-01T00:00:49.132Z,13.20
2023-03-01T00:01:49.211Z,13.80
2023-03-01T00:02:49.109Z,12.60
2023-03-01T00:03:49.246Z,13.50
2023-03-01T00:04:49.083Z,13.10
2023-03-01T00:05:49.065Z,13.10
2023-03-01T00:06:49.077Z,12.70
2023-03-01T00:07:49.045Z,13.40
2023-03-01T00:08:49.046Z,13.00
2023-03-01T00:09:49.029Z,12.80
2023-03-01T00:10:49.046Z,12.90
2023-03-01T00:11:49.003Z,13.00
2023-03-01T00:12:48.991Z,12.80
2023-03-01T00:13:49.029Z,13.50
2023-03-01T00:14:48.971Z,13.60
2023-03-01T00:15:48.954Z,13.60
2023-03-01T00:16:49.006Z,13.20
2023-03-01T00:17:48.919Z,14.00
2023-03-01T00:18:48.917Z,13.30
2023-03-01T00:19:48.894Z,13.30
2023-03-01T00:20:48.895Z,13.30
2023-03-01T00:21:48.893Z,13.80
2023-03-01T00:22:48.868Z,13.30
2023-03-01T00:23:48.853Z,13.10
2023-03-01T00:24:48.833Z,13.50
2023-03-01T00:25:48.818Z,12.70
2023-03-01T00:26:48.837Z,13.70
2023-03-01T00:27:48.803Z,14.00
2023-03-01T00:28:48.801Z,13.50
2023-03-01T00:29:48.770Z,13.10
2023-03-01T00:30:48.824Z,13.60
2023-03-01T00:31:48.863Z,13.60
2023-03-01T00:32:48.750Z,13.90
2023-03-01T00:33:48.755Z,13.00
2023-03-01T00:34:48.710Z,13.20
2023-03-01T00:35:48.865Z,12.90
2023-03-01T00:36:48.706Z,13.40
2023-03-01T00:37:48.671Z,13.50
2023-03-01T00:38:48.672Z,13.20
2023-03-01T00:39:48.707Z,13.20
2023-03-01T00:40:48.634Z,13.30
2023-03-01T00:41:48.639Z,13.60
2023-03-01T00:42:48.611Z,13.00
2023-03-01T00:43:48.599Z,13.70
2023-03-01T00:44:48.586Z,13.50
2023-03-01T00:45:48.640Z,13.30
2023-03-01T00:46:48.585Z,13.60
2023-03-01T00:47:48.558Z,14.20
2023-03-01T00:48:48.543Z,13.40
2023-03-01T00:49:48.521Z,13.50
2023-03-01T00:50:48.516Z,13.10
2023-03-01T00:51:48.505Z,13.20
2023-03-01T00:52:48.503Z,13.20
2023-03-01T00:53:48.483Z,12.80
2023-03-01T00:54:48.465Z,13.00
2023-03-01T00:55:48.455Z,13.20
2023-03-01T00:56:48.453Z,13.60
2023-03-01T00:57:48.439Z,13.80
2023-03-01T00:58:48.417Z,13.20
2023-03-01T00:59:48.400Z,13.70
2023-03-01T01:00:48.397Z,13.50
2023-03-01T01:01:48.479Z,13.90
2023-03-01T01:02:48.543Z,13.80
2023-03-01T01:03:48.370Z,13.90
2023-03-01T01:04:48.342Z,13.60
2023-03-01T01:05:48.344Z,13.30
2023-03-01T01:06:48.343Z,13.80
2023-03-01T01:07:48.324Z,13.20
2023-03-01T01:08:48.293Z,13.10
2023-03-01T01:09:48.289Z,13.30
2023-03-01T01:10:48.276Z,13.70
2023-03-01T01:11:48.279Z,13.40
2023-03-01T01:12:48.248Z,14.40
2023-03-01T01:13:48.230Z,14.10
2023-03-01T01:14:48.242Z,13.80
2023-03-01T01:15:48.232Z,13.80
2023-03-01T01:16:48.251Z,14.00
2023-03-01T01:17:48.191Z,13.90
2023-03-01T01:18:48.174Z,14.40
2023-03-01T01:19:48.157Z,15.00
2023-03-01T01:20:48.159Z,14.50
2023-03-01T01:21:48.151Z,14.20
2023-03-01T01:22:48.157Z,14.30
2023-03-01T01:23:48.107Z,14.50
2023-03-01T01:24:48.123Z,13.80
2023-03-01T01:25:48.088Z,14.90
2023-03-01T01:26:48.079Z,14.70
2023-03-01T01:27:48.076Z,14.20
2023-03-01T01:28:48.049Z,14.20
2023-03-01T01:29:48.034Z,14.90
2023-03-01T01:30:48.070Z,14.90
2023-03-01T01:31:48.089Z,15.50
2023-03-01T01:32:48.016Z,14.60
2023-03-01T01:33:47.990Z,14.80
2023-03-01T01:34:47.979Z,14.80
2023-03-01T01:35:47.975Z,15.20
2023-03-01T01:36:47.961Z,15.00
2023-03-01T01:37:47.955Z,15.10
2023-03-01T01:38:47.944Z,16.20
2023-03-01T01:39:47.908Z,16.10
2023-03-01T01:40:47.908Z,15.80
2023-03-01T01:41:47.908Z,16.90
2023-03-01T01:42:47.906Z,15.50
2023-03-01T01:43:47.866Z,14.90
2023-03-01T01:44:47.856Z,16.00
2023-03-01T01:45:47.844Z,15.80
2023-03-01T01:46:47.881Z,15.60
2023-03-01T01:47:47.897Z,15.90
2023-03-01T01:48:47.812Z,15.90
2023-03-01T01:49:47.796Z,14.90
2023-03-01T01:50:47.784Z,16.50
2023-03-01T01:51:47.799Z,16.30
2023-03-01T01:52:47.759Z,16.40
2023-03-01T01:53:47.745Z,17.00
2023-03-01T01:54:47.778Z,16.90
2023-03-01T01:55:47.721Z,16.10
2023-03-01T01:56:47.730Z,16.10
2023-03-01T01:57:47.692Z,16.80
2023-03-01T01:58:47.688Z,16.50
2023-03-01T01:59:47.680Z,16.60
2023-03-01T02:00:47.668Z,16.40
2023-03-01T02:01:47.692Z,17.10
2023-03-01T02:02:47.836Z,16.70
2023-03-01T02:03:47.679Z,17.10
2023-03-01T02:04:47.613Z,16.30
2023-03-01T02:05:54.740Z,17.20
2023-03-01T02:06:47.858Z,16.70
2023-03-01T02:07:47.591Z,16.80
2023-03-01T02:08:47.563Z,16.20
2023-03-01T02:09:47.555Z,16.80
2023-03-01T02:10:47.577Z,15.50
2023-03-01T02:11:47.521Z,16.10
2023-03-01T02:12:47.532Z,15.80
2023-03-01T02:13:47.498Z,16.20
2023-03-01T02:14:47.495Z,16.50
2023-03-01T02:15:47.544Z,17.20
2023-03-01T02:16:47.468Z,17.30
2023-03-01T02:17:47.655Z,16.60
2023-03-01T02:18:47.442Z,17.70
2023-03-01T02:19:47.424Z,16.50
2023-03-01T02:20:47.419Z,16.50
2023-03-01T02:21:47.402Z,16.90
2023-03-01T02:22:47.418Z,16.90
2023-03-01T02:23:47.381Z,16.20
2023-03-01T02:24:47.395Z,16.70
2023-03-01T02:25:47.363Z,17.40
2023-03-01T02:26:47.346Z,18.40
2023-03-01T02:27:47.339Z,17.30
2023-03-01T02:28:47.361Z,16.40
2023-03-01T02:29:47.314Z,17.10
2023-03-01T02:30:47.294Z,17.00
2023-03-01T02:31:47.457Z,17.60
2023-03-01T02:32:47.318Z,18.50
2023-03-01T02:33:47.264Z,18.10
2023-03-01T02:34:47.272Z,17.40
2023-03-01T02:35:47.295Z,17.50
2023-03-01T02:36:47.231Z,18.70
2023-03-01T02:37:47.229Z,17.40
2023-03-01T02:38:47.201Z,17.00
2023-03-01T02:39:47.191Z,17.70
2023-03-01T02:40:47.178Z,18.70
2023-03-01T02:41:47.171Z,17.30
2023-03-01T02:42:47.156Z,18.00
2023-03-01T02:43:47.196Z,17.10
2023-03-01T02:44:47.127Z,17.10
2023-03-01T02:45:47.110Z,16.20
2023-03-01T02:46:47.148Z,17.10
2023-03-01T02:47:47.116Z,16.80
2023-03-01T02:48:47.108Z,16.30
2023-03-01T02:49:47.062Z,16.70
2023-03-01T02:50:47.057Z,16.00
2023-03-01T02:51:47.038Z,15.60
2023-03-01T02:52:47.039Z,16.30
2023-03-01T02:53:47.044Z,17.00
2023-03-01T02:54:47.008Z,17.30
2023-03-01T02:55:46.986Z,16.70
2023-03-01T02:56:46.977Z,16.40
2023-03-01T02:57:47.357Z,16.60
2023-03-01T02:58:46.954Z,17.00
2023-03-01T02:59:46.952Z,17.30
2023-03-01T03:00:46.955Z,17.10
2023-03-01T03:01:47.440Z,17.20
2023-03-01T03:02:46.922Z,16.20
2023-03-01T03:03:46.963Z,17.00
2023-03-01T03:04:46.878Z,17.70
2023-03-01T03:05:46.879Z,17.50
2023-03-01T03:06:46.862Z,18.20
2023-03-01T03:07:46.838Z,17.30
2023-03-01T03:08:46.865Z,17.80
2023-03-01T03:09:46.813Z,17.20
2023-03-01T03:10:46.809Z,16.80
2023-03-01T03:11:46.799Z,18.60
2023-03-01T03:12:46.780Z,18.30
2023-03-01T03:13:46.789Z,18.90
2023-03-01T03:14:46.766Z,18.20
2023-03-01T03:15:46.751Z,18.90
2023-03-01T03:16:46.744Z,19.40
2023-03-01T03:17:46.741Z,18.80
2023-03-01T03:18:46.724Z,18.80
2023-03-01T03:19:46.692Z,19.50
2023-03-01T03:20:46.686Z,17.90
2023-03-01T03:21:46.687Z,19.40
2023-03-01T03:22:46.667Z,18.10
2023-03-01T03:23:46.685Z,17.70
2023-03-01T03:24:46.656Z,18.50
2023-03-01T03:25:46.658Z,19.10
2023-03-01T03:26:46.609Z,18.70
2023-03-01T03:27:46.607Z,18.30
2023-03-01T03:28:46.598Z,17.30
2023-03-01T03:29:46.574Z,18.00
2023-03-01T03:30:46.592Z,18.30
2023-03-01T03:31:46.769Z,17.80
2023-03-01T03:32:46.529Z,17.60
2023-03-01T03:33:46.545Z,16.80
2023-03-01T03:34:46.509Z,17.90
2023-03-01T03:35:46.555Z,17.40
2023-03-01T03:36:46.499Z,17.30
2023-03-01T03:37:46.475Z,17.20
2023-03-01T03:38:46.481Z,17.00
2023-03-01T03:39:46.502Z,17.50
2023-03-01T03:40:46.432Z,16.50
2023-03-01T03:41:46.425Z,17.10
2023-03-01T03:42:46.426Z,17.30
2023-03-01T03:43:46.423Z,16.70
2023-03-01T03:44:46.401Z,17.00
2023-03-01T03:45:46.422Z,17.60
2023-03-01T03:46:46.373Z,17.80
2023-03-01T03:47:46.366Z,16.70
2023-03-01T03:48:46.356Z,16.30
2023-03-01T03:49:46.330Z,17.80
2023-03-01T03:50:46.306Z,17.60
2023-03-01T03:51:46.299Z,16.90
2023-03-01T03:52:46.281Z,17.70
2023-03-01T03:53:46.318Z,17.50
2023-03-01T03:54:46.265Z,17.90
2023-03-01T03:55:46.285Z,18.00
2023-03-01T03:56:46.234Z,18.00
2023-03-01T03:57:46.255Z,16.40
2023-03-01T03:58:46.256Z,16.50
2023-03-01T03:59:46.210Z,17.50
2023-03-01T04:00:46.189Z,17.00
2023-03-01T04:01:46.225Z,16.90
2023-03-01T04:02:46.368Z,17.20
2023-03-01T04:03:46.180Z,17.30
2023-03-01T04:04:46.153Z,17.40
2023-03-01T04:05:46.148Z,18.30
2023-03-01T04:06:46.125Z,17.10
2023-03-01T04:07:46.117Z,17.50
2023-03-01T04:08:46.133Z,17.50
2023-03-01T04:09:46.093Z,17.40
2023-03-01T04:10:46.067Z,18.20
2023-03-01T04:11:46.069Z,17.20
2023-03-01T04:12:46.057Z,17.40
2023-03-01T04:13:46.044Z,17.00
2023-03-01T04:14:47.956Z,18.40
2023-03-01T04:15:46.018Z,17.40
2023-03-01T04:16:46.038Z,18.10
2023-03-01T04:17:46.006Z,17.40
2023-03-01T04:18:45.976Z,17.40
2023-03-01T04:19:45.972Z,17.40
2023-03-01T04:20:45.952Z,16.70
2023-03-01T04:21:45.943Z,17.60
2023-03-01T04:22:45.945Z,17.60
2023-03-01T04:23:45.916Z,17.80
2023-03-01T04:24:45.898Z,17.60
2023-03-01T04:25:45.895Z,17.60
2023-03-01T04:26:45.885Z,18.70
2023-03-01T04:27:45.907Z,18.50
2023-03-01T04:28:45.863Z,18.30
2023-03-01T04:29:45.861Z,17.80
2023-03-01T04:30:45.831Z,18.30
2023-03-01T04:31:45.883Z,17.50
2023-03-01T04:32:45.860Z,16.90
2023-03-01T04:33:45.831Z,18.20
2023-03-01T04:34:45.789Z,18.10
2023-03-01T04:35:45.914Z,17.30
2023-03-01T04:36:45.896Z,17.80
2023-03-01T04:37:45.763Z,17.80
2023-03-01T04:38:45.760Z,17.50
2023-03-01T04:39:45.719Z,18.00
2023-03-01T04:40:45.732Z,18.50
2023-03-01T04:41:45.710Z,17.10
2023-03-01T04:42:45.687Z,18.00
2023-03-01T04:43:45.716Z,18.20
2023-03-01T04:44:45.675Z,17.10
2023-03-01T04:45:45.710Z,17.00
2023-03-01T04:46:45.657Z,17.90
2023-03-01T04:47:45.631Z,18.50
2023-03-01T04:48:45.640Z,17.00
2023-03-01T04:49:45.609Z,17.80
2023-03-01T04:50:45.587Z,17.90
2023-03-01T04:51:45.579Z,17.80
2023-03-01T04:52:45.562Z,18.20
2023-03-01T04:53:45.629Z,17.60
2023-03-01T04:54:45.675Z,18.50
2023-03-01T04:55:45.531Z,19.00
2023-03-01T04:56:45.521Z,18.60
2023-03-01T04:57:45.502Z,18.60
2023-03-01T04:58:45.528Z,17.80
2023-03-01T04:59:45.496Z,18.60
2023-03-01T05:00:45.474Z,18.20
2023-03-01T05:01:45.463Z,18.60
2023-03-01T05:02:45.492Z,18.40
2023-03-01T05:03:45.444Z,19.20
2023-03-01T05:04:45.510Z,18.20
2023-03-01T05:05:45.414Z,18.50
2023-03-01T05:06:45.396Z,18.60
2023-03-01T05:07:45.378Z,18.40
2023-03-01T05:08:45.401Z,19.10
2023-03-01T05:09:45.352Z,18.70
2023-03-01T05:10:45.334Z,18.50
2023-03-01T05:11:45.362Z,18.70
2023-03-01T05:12:45.317Z,18.50
2023-03-01T05:13:45.328Z,18.00
2023-03-01T05:14:46.093Z,18.50
2023-03-01T05:15:45.339Z,18.60
2023-03-01T05:16:45.268Z,18.30
2023-03-01T05:17:45.436Z,19.10
2023-03-01T05:18:45.284Z,18.60
2023-03-01T05:19:45.227Z,18.50
2023-03-01T05:20:45.210Z,21.10
2023-03-01T05:21:45.206Z,18.80
2023-03-01T05:22:45.207Z,18.10
2023-03-01T05:23:45.205Z,18.20
2023-03-01T05:24:45.165Z,18.80
2023-03-01T05:25:45.234Z,18.80
2023-03-01T05:26:45.146Z,17.90
2023-03-01T05:27:45.146Z,17.80
2023-03-01T05:28:45.121Z,18.50
2023-03-01T05:29:45.128Z,19.60
2023-03-01T05:30:45.122Z,19.30
2023-03-01T05:31:45.101Z,19.10
2023-03-01T05:32:45.103Z,19.10
2023-03-01T05:33:45.094Z,19.80
2023-03-01T05:34:45.043Z,18.40
2023-03-01T05:35:45.077Z,18.60
2023-03-01T05:36:45.028Z,18.80
2023-03-01T05:37:45.004Z,19.20
2023-03-01T05:38:45.003Z,18.60
2023-03-01T05:39:44.979Z,19.40
2023-03-01T05:40:44.930Z,20.10
2023-03-01T05:41:44.967Z,19.50
2023-03-01T05:42:44.942Z,20.10
2023-03-01T05:43:44.975Z,19.70
2023-03-01T05:44:44.878Z,19.80
2023-03-01T05:45:44.900Z,20.70
2023-03-01T05:46:44.848Z,20.30
2023-03-01T05:47:44.880Z,19.80
2023-03-01T05:48:44.928Z,18.80
2023-03-01T05:49:44.850Z,20.40
2023-03-01T05:50:44.822Z,19.80
2023-03-01T05:51:44.787Z,20.10
2023-03-01T05:52:44.757Z,20.20
2023-03-01T05:53:44.806Z,21.00
2023-03-01T05:54:44.740Z,21.20
2023-03-01T05:55:44.815Z,20.30
2023-03-01T05:56:44.722Z,19.90
2023-03-01T05:57:44.742Z,20.30
2023-03-01T05:58:44.735Z,20.90
2023-03-01T05:59:44.687Z,19.50
2023-03-01T06:00:44.692Z,20.90
2023-03-01T06:01:44.820Z,20.40
2023-03-01T06:02:44.635Z,20.80
2023-03-01T06:03:44.667Z,21.40
2023-03-01T06:04:44.845Z,21.50
2023-03-01T06:05:44.682Z,21.00
2023-03-01T06:06:44.593Z,19.80
2023-03-01T06:07:44.585Z,21.10
2023-03-01T06:08:44.591Z,20.40
2023-03-01T06:09:44.554Z,20.60
2023-03-01T06:10:44.539Z,21.30
2023-03-01T06:11:44.537Z,22.20
2023-03-01T06:12:44.529Z,23.40
2023-03-01T06:13:44.517Z,23.10
2023-03-01T06:14:44.498Z,23.40
2023-03-01T06:15:44.511Z,21.70
2023-03-01T06:16:44.465Z,21.40
2023-03-01T06:17:44.474Z,21.80
2023-03-01T06:18:44.470Z,21.30
2023-03-01T06:19:44.432Z,22.60
2023-03-01T06:20:44.433Z,21.90
2023-03-01T06:21:44.406Z,21.70
2023-03-01T06:22:44.399Z,22.30
2023-03-01T06:23:44.415Z,22.40
2023-03-01T06:24:44.375Z,22.50
2023-03-01T06:25:44.418Z,22.20
2023-03-01T06:26:44.347Z,22.30
2023-03-01T06:27:44.337Z,22.60
2023-03-01T06:28:44.345Z,26.90
2023-03-01T06:29:44.348Z,23.30
2023-03-01T06:30:44.309Z,22.90
2023-03-01T06:31:44.288Z,23.30
2023-03-01T06:32:44.319Z,23.50
2023-03-01T06:33:44.286Z,23.30
2023-03-01T06:34:44.252Z,22.30
2023-03-01T06:35:44.290Z,23.90
2023-03-01T06:36:44.264Z,23.90
2023-03-01T06:37:44.227Z,23.40
2023-03-01T06:38:44.218Z,25.10
2023-03-01T06:39:44.190Z,23.10
2023-03-01T06:40:44.218Z,22.90
2023-03-01T06:41:44.223Z,22.50
2023-03-01T06:42:44.159Z,23.00
2023-03-01T06:43:44.164Z,22.30
2023-03-01T06:44:44.139Z,24.30
2023-03-01T06:45:44.127Z,23.10
2023-03-01T06:46:44.131Z,23.90
2023-03-01T06:47:44.112Z,24.40
2023-03-01T06:48:44.229Z,23.00
2023-03-01T06:49:44.091Z,22.10
2023-03-01T06:50:44.082Z,22.30
2023-03-01T06:51:44.054Z,21.40
2023-03-01T06:52:44.088Z,22.10
2023-03-01T06:53:44.468Z,20.90
2023-03-01T06:54:44.016Z,21.90
2023-03-01T06:55:44.027Z,22.70
2023-03-01T06:56:43.993Z,21.40
2023-03-01T06:57:43.967Z,21.50
2023-03-01T06:58:44.302Z,21.70
2023-03-01T06:59:43.962Z,21.70
2023-03-01T07:00:43.935Z,21.30
2023-03-01T07:01:43.927Z,21.90
2023-03-01T07:02:43.960Z,19.80
2023-03-01T07:03:44.337Z,20.70
2023-03-01T07:04:43.902Z,20.70
2023-03-01T07:05:43.865Z,21.00
2023-03-01T07:06:43.851Z,20.80
2023-03-01T07:07:43.884Z,20.80
2023-03-01T07:08:43.860Z,21.00
2023-03-01T07:09:43.846Z,21.00
2023-03-01T07:10:43.802Z,21.70
2023-03-01T07:11:43.806Z,20.10
2023-03-01T07:12:43.780Z,19.30
2023-03-01T07:13:43.788Z,20.70
2023-03-01T07:14:43.777Z,20.30
2023-03-01T07:15:43.768Z,19.90
2023-03-01T07:16:43.724Z,18.80
2023-03-01T07:17:43.734Z,20.00
2023-03-01T07:18:43.709Z,20.20
2023-03-01T07:19:43.717Z,20.40
2023-03-01T07:20:43.684Z,19.50
2023-03-01T07:21:43.668Z,19.70
2023-03-01T07:22:43.669Z,19.20
2023-03-01T07:23:43.656Z,19.00
2023-03-01T07:24:43.649Z,19.80
2023-03-01T07:25:43.624Z,19.50
2023-03-01T07:26:43.632Z,19.80
2023-03-01T07:27:43.597Z,20.00
2023-03-01T07:28:43.602Z,19.80
2023-03-01T07:29:43.717Z,20.10
2023-03-01T07:30:43.574Z,19.30
2023-03-01T07:31:43.564Z,18.10
2023-03-01T07:32:43.653Z,19.30
2023-03-01T07:33:43.530Z,18.00
2023-03-01T07:34:43.535Z,19.90
2023-03-01T07:35:43.545Z,17.90
2023-03-01T07:36:43.497Z,17.70
2023-03-01T07:37:43.498Z,19.50
2023-03-01T07:38:43.470Z,18.80
2023-03-01T07:39:43.477Z,18.50
2023-03-01T07:40:43.524Z,18.30
2023-03-01T07:41:43.536Z,18.40
2023-03-01T07:42:43.411Z,19.50
2023-03-01T07:43:43.436Z,18.60
2023-03-01T07:44:43.441Z,17.70
2023-03-01T07:45:43.418Z,18.90
2023-03-01T07:46:43.362Z,18.20
2023-03-01T07:47:43.349Z,18.90
2023-03-01T07:48:43.346Z,18.10
2023-03-01T07:49:43.333Z,18.50
2023-03-01T07:50:43.303Z,19.10
2023-03-01T07:51:43.460Z,18.50
2023-03-01T07:52:43.286Z,19.40
2023-03-01T07:53:43.267Z,18.60
2023-03-01T07:54:43.314Z,19.30
2023-03-01T07:55:43.244Z,18.20
2023-03-01T07:56:43.234Z,18.20
2023-03-01T07:57:43.225Z,17.40
2023-03-01T07:58:43.257Z,17.50
2023-03-01T07:59:43.207Z,18.10
2023-03-01T08:00:43.191Z,18.20
2023-03-01T08:01:43.237Z,18.10
2023-03-01T08:02:43.309Z,18.50
2023-03-01T08:03:43.179Z,19.00
2023-03-01T08:04:43.134Z,18.20
2023-03-01T08:05:43.127Z,17.60
2023-03-01T08:06:43.115Z,17.20
2023-03-01T08:07:43.093Z,18.00
2023-03-01T08:08:43.135Z,17.50
2023-03-01T08:09:43.083Z,18.10
2023-03-01T08:10:43.089Z,17.20
2023-03-01T08:11:43.138Z,20.70
2023-03-01T08:12:43.038Z,21.00
2023-03-01T08:13:43.049Z,17.90
2023-03-01T08:14:43.029Z,16.90
2023-03-01T08:15:43.002Z,16.80
2023-03-01T08:16:43.121Z,16.70
2023-03-01T08:17:42.961Z,16.20
2023-03-01T08:18:42.972Z,16.90
2023-03-01T08:19:42.935Z,15.80
2023-03-01T08:20:43.010Z,16.30
2023-03-01T08:21:42.917Z,16.40
2023-03-01T08:22:42.917Z,16.20
2023-03-01T08:23:42.921Z,31.90
2023-03-01T08:24:42.876Z,18.20
2023-03-01T08:25:42.868Z,17.70
2023-03-01T08:26:42.856Z,15.90
2023-03-01T08:27:42.868Z,16.10
2023-03-01T08:28:42.867Z,15.60
2023-03-01T08:29:42.815Z,15.50
2023-03-01T08:30:42.822Z,15.30
2023-03-01T08:31:42.821Z,15.40
2023-03-01T08:32:42.952Z,15.20
2023-03-01T08:33:42.771Z,16.30
2023-03-01T08:34:42.760Z,18.30
2023-03-01T08:35:42.801Z,14.60
2023-03-01T08:36:42.734Z,15.20
2023-03-01T08:37:42.718Z,14.10
2023-03-01T08:38:42.749Z,15.30
2023-03-01T08:39:42.738Z,14.80
2023-03-01T08:40:42.676Z,14.30
2023-03-01T08:41:42.659Z,14.70
2023-03-01T08:42:42.706Z,14.30
2023-03-01T08:43:42.672Z,13.60
2023-03-01T08:44:42.632Z,14.10
2023-03-01T08:45:42.666Z,14.70
2023-03-01T08:46:42.621Z,13.20
2023-03-01T08:47:42.592Z,13.50
2023-03-01T08:48:42.620Z,14.00
2023-03-01T08:49:42.559Z,13.90
2023-03-01T08:50:42.573Z,14.20
2023-03-01T08:51:42.546Z,13.40
2023-03-01T08:52:42.564Z,14.40
2023-03-01T08:53:42.505Z,13.10
2023-03-01T08:54:42.500Z,12.30
2023-03-01T08:55:42.516Z,13.00
2023-03-01T08:56:42.486Z,13.60
2023-03-01T08:57:42.471Z,12.60
2023-03-01T08:58:42.450Z,13.50
2023-03-01T08:59:42.457Z,12.30
2023-03-01T09:00:42.453Z,12.60
2023-03-01T09:01:42.419Z,12.10
2023-03-01T09:02:42.413Z,12.70
2023-03-01T09:03:42.404Z,12.70
2023-03-01T09:04:42.375Z,12.60
2023-03-01T09:05:42.396Z,13.00
2023-03-01T09:06:42.352Z,12.40
2023-03-01T09:07:42.341Z,12.30
2023-03-01T09:08:42.322Z,12.00
2023-03-01T09:09:42.315Z,12.70
2023-03-01T09:10:42.352Z,12.70
2023-03-01T09:11:42.284Z,12.10
2023-03-01T09:12:42.282Z,12.40
2023-03-01T09:13:44.261Z,12.10
2023-03-01T09:14:42.318Z,12.40
2023-03-01T09:15:42.224Z,12.40
2023-03-01T09:16:42.286Z,11.80
2023-03-01T09:17:42.199Z,12.30
2023-03-01T09:18:42.227Z,12.70
2023-03-01T09:19:42.210Z,12.70
2023-03-01T09:20:42.184Z,12.60
2023-03-01T09:21:42.154Z,12.00
2023-03-01T09:22:42.144Z,12.30
2023-03-01T09:23:42.562Z,12.20
2023-03-01T09:24:42.131Z,11.50
2023-03-01T09:25:42.102Z,12.00
2023-03-01T09:26:42.105Z,12.20
2023-03-01T09:27:42.142Z,12.10
2023-03-01T09:28:42.072Z,12.00
2023-03-01T09:29:42.057Z,12.70
2023-03-01T09:30:42.098Z,11.90
2023-03-01T09:31:42.032Z,11.40
2023-03-01T09:32:42.017Z,11.30
2023-03-01T09:33:42.030Z,11.30
2023-03-01T09:34:41.980Z,11.20
2023-03-01T09:35:41.974Z,10.50
2023-03-01T09:36:41.995Z,10.50
2023-03-01T09:37:41.938Z,10.80
2023-03-01T09:38:41.939Z,10.60
2023-03-01T09:39:41.929Z,10.60
2023-03-01T09:40:41.894Z,10.70
2023-03-01T09:41:41.884Z,10.10
2023-03-01T09:42:41.880Z,10.40
2023-03-01T09:44:40.848Z,10.80
2023-03-01T09:45:41.830Z,11.30
2023-03-01T09:46:41.817Z,11.00
2023-03-01T09:47:41.801Z,11.10
2023-03-01T09:48:41.815Z,11.30
2023-03-01T09:49:41.779Z,10.80
2023-03-01T09:50:41.770Z,11.80
2023-03-01T09:51:41.765Z,11.40
2023-03-01T09:52:41.791Z,10.70
2023-03-01T09:53:41.721Z,11.40
2023-03-01T09:54:41.715Z,11.30
2023-03-01T09:55:41.717Z,11.40
2023-03-01T09:56:41.704Z,11.20
2023-03-01T09:57:41.665Z,11.00
2023-03-01T09:58:41.695Z,11.00
2023-03-01T09:59:41.653Z,10.70
2023-03-01T10:00:41.640Z,10.70
2023-03-01T10:01:41.622Z,10.60
2023-03-01T10:02:41.625Z,11.00
2023-03-01T10:03:41.623Z,11.30
2023-03-01T10:04:41.601Z,10.80
2023-03-01T10:05:41.560Z,10.40
2023-03-01T10:06:41.556Z,10.90
2023-03-01T10:07:41.536Z,10.50
2023-03-01T10:08:41.544Z,10.60
2023-03-01T10:09:41.515Z,11.50
2023-03-01T10:10:41.502Z,11.10
2023-03-01T10:11:41.812Z,10.90
2023-03-01T10:12:41.494Z,10.50
2023-03-01T10:13:41.484Z,10.40
2023-03-01T10:14:41.479Z,10.50
2023-03-01T10:15:41.706Z,10.30
2023-03-01T10:16:41.415Z,10.30
2023-03-01T10:17:41.422Z,10.70
2023-03-01T10:18:41.410Z,11.00
2023-03-01T10:19:41.380Z,10.70
2023-03-01T10:20:41.368Z,11.10
2023-03-01T10:21:41.348Z,10.20
2023-03-01T10:22:41.394Z,10.30
2023-03-01T10:23:41.321Z,11.00
2023-03-01T10:24:41.319Z,10.30
2023-03-01T10:25:43.424Z,10.50
2023-03-01T10:26:41.284Z,10.60
2023-03-01T10:27:41.334Z,11.10
2023-03-01T10:28:41.271Z,10.40
2023-03-01T10:29:41.251Z,11.30
2023-03-01T10:30:41.241Z,10.90
2023-03-01T10:31:41.247Z,10.20
2023-03-01T10:32:41.238Z,9.60
2023-03-01T10:33:41.236Z,10.00
2023-03-01T10:34:41.214Z,11.00
2023-03-01T10:35:41.179Z,10.40
2023-03-01T10:36:41.170Z,11.00
2023-03-01T10:37:41.139Z,11.30
2023-03-01T10:38:41.139Z,11.70
2023-03-01T10:39:41.120Z,10.40
2023-03-01T10:40:41.098Z,11.50
2023-03-01T10:41:41.120Z,10.70
2023-03-01T10:42:41.095Z,11.10
2023-03-01T10:43:41.072Z,10.80
2023-03-01T10:44:41.073Z,10.80
2023-03-01T10:45:41.030Z,11.10
2023-03-01T10:46:41.057Z,10.70
2023-03-01T10:47:41.005Z,10.30
2023-03-01T10:48:41.019Z,10.60
2023-03-01T10:49:40.977Z,11.00
2023-03-01T10:50:42.325Z,10.50
2023-03-01T10:51:40.963Z,10.70
2023-03-01T10:52:40.942Z,10.70
2023-03-01T10:53:40.965Z,9.70
2023-03-01T10:54:40.926Z,10.50
2023-03-01T10:55:40.907Z,10.50
2023-03-01T10:56:40.895Z,10.20
2023-03-01T10:57:42.654Z,11.00
2023-03-01T10:58:40.944Z,10.70
2023-03-01T10:59:40.850Z,10.30
2023-03-01T11:00:40.837Z,19.80
2023-03-01T11:01:40.848Z,10.70
2023-03-01T11:02:40.905Z,10.50
2023-03-01T11:03:40.801Z,10.10
2023-03-01T11:04:40.852Z,10.70
2023-03-01T11:05:40.766Z,10.30
2023-03-01T11:06:40.763Z,10.20
2023-03-01T11:07:40.750Z,10.80
2023-03-01T11:08:40.757Z,10.80
2023-03-01T11:09:40.720Z,10.20
2023-03-01T11:10:40.771Z,10.40
2023-03-01T11:11:40.683Z,10.80
2023-03-01T11:12:40.714Z,10.20
2023-03-01T11:13:40.675Z,10.40
2023-03-01T11:14:40.675Z,11.00
2023-03-01T11:15:40.652Z,10.50
2023-03-01T11:16:40.628Z,10.00
2023-03-01T11:17:53.589Z,10.20
2023-03-01T11:18:48.197Z,9.80
2023-03-01T11:19:40.592Z,9.90
2023-03-01T11:20:40.597Z,9.90
2023-03-01T11:21:40.560Z,10.30
2023-03-01T11:22:40.566Z,10.20
2023-03-01T11:23:40.590Z,10.00
2023-03-01T11:24:42.374Z,10.10
2023-03-01T11:25:40.515Z,10.20
2023-03-01T11:26:40.524Z,10.20
2023-03-01T11:27:40.489Z,9.80
2023-03-01T11:28:40.487Z,10.10
2023-03-01T11:29:48.606Z,9.80
2023-03-01T11:30:40.466Z,10.40
2023-03-01T11:31:46.543Z,10.30
2023-03-01T11:32:40.537Z,10.00
2023-03-01T11:33:40.428Z,10.00
2023-03-01T11:34:40.416Z,10.30
2023-03-01T11:35:40.745Z,10.00
2023-03-01T11:36:40.383Z,9.90
2023-03-01T11:37:40.350Z,10.00
2023-03-01T11:38:40.367Z,10.10
2023-03-01T11:39:40.325Z,9.90
2023-03-01T11:40:40.357Z,9.70
2023-03-01T11:41:40.304Z,10.10
2023-03-01T11:42:40.347Z,10.20
2023-03-01T11:43:40.265Z,9.70
2023-03-01T11:44:40.324Z,11.00
2023-03-01T11:45:40.297Z,10.20
2023-03-01T11:46:40.348Z,9.60
2023-03-01T11:47:40.398Z,9.50
2023-03-01T11:48:49.391Z,9.70
2023-03-01T11:49:40.574Z,10.10
2023-03-01T11:50:40.182Z,9.70
2023-03-01T11:51:40.173Z,10.30
2023-03-01T11:52:40.152Z,9.80
2023-03-01T11:53:40.151Z,9.40
2023-03-01T11:54:40.203Z,10.40
2023-03-01T11:55:40.105Z,9.80
2023-03-01T11:56:40.124Z,10.50
2023-03-01T11:57:43.938Z,10.00
2023-03-01T11:58:40.078Z,10.50
2023-03-01T11:59:40.075Z,10.50
2023-03-01T12:00:40.051Z,10.20
2023-03-01T12:01:42.441Z,9.90
2023-03-01T12:02:40.029Z,10.10
2023-03-01T12:03:40.038Z,10.00
2023-03-01T12:04:40.092Z,10.10
2023-03-01T12:05:39.987Z,10.50
2023-03-01T12:06:39.964Z,10.50
2023-03-01T12:07:39.967Z,10.00
2023-03-01T12:08:39.969Z,11.00
2023-03-01T12:09:39.948Z,9.90
2023-03-01T12:10:39.943Z,10.20
2023-03-01T12:11:40.453Z,10.40
2023-03-01T12:12:40.091Z,10.20
2023-03-01T12:13:39.889Z,10.80
2023-03-01T12:14:39.883Z,10.40
2023-03-01T12:15:39.857Z,11.20
2023-03-01T12:16:40.150Z,10.00
2023-03-01T12:17:39.849Z,9.90
2023-03-01T12:18:39.834Z,10.10
2023-03-01T12:19:39.841Z,10.40
2023-03-01T12:20:39.809Z,9.30
2023-03-01T12:21:39.774Z,9.80
2023-03-01T12:22:39.783Z,9.80
2023-03-01T12:23:39.768Z,9.60
2023-03-01T12:24:39.857Z,9.60
2023-03-01T12:25:39.725Z,9.70
2023-03-01T12:26:39.714Z,10.30
2023-03-01T12:27:39.709Z,9.80
2023-03-01T12:28:39.958Z,10.20
2023-03-01T12:29:39.677Z,10.40
2023-03-01T12:30:39.659Z,10.40
2023-03-01T12:31:39.767Z,10.30
2023-03-01T12:32:39.798Z,10.60
2023-03-01T12:33:39.737Z,10.50
2023-03-01T12:34:40.130Z,10.00
2023-03-01T12:35:39.603Z,9.70
2023-03-01T12:36:39.586Z,10.40
2023-03-01T12:37:39.604Z,10.30
2023-03-01T12:38:39.552Z,10.30
2023-03-01T12:39:40.118Z,10.80
2023-03-01T12:40:39.533Z,10.60
2023-03-01T12:41:39.518Z,10.70
2023-03-01T12:42:39.510Z,10.30
2023-03-01T12:43:39.516Z,10.90
2023-03-01T12:44:39.483Z,11.30
2023-03-01T12:45:39.480Z,11.30
2023-03-01T12:46:39.450Z,11.00
2023-03-01T12:47:39.439Z,10.00
2023-03-01T12:48:39.441Z,10.40
2023-03-01T12:49:39.489Z,10.70
2023-03-01T12:50:39.412Z,10.40
2023-03-01T12:51:39.411Z,10.50
2023-03-01T12:52:39.459Z,10.90
2023-03-01T12:53:39.441Z,12.00
2023-03-01T12:54:39.416Z,11.30